sensor_id;sensor_type;location;lat;lon;timestamp;pressure;altitude;pressure_sealevel;temperature;humidity
30554;BME280;17335;50.720;7.452;2023-02-28T00:00:36;100479.75;;;-3.62;100.00
30554;BME280;17335;50.720;7.452;2023-02-28T00:03:03;100478.84;;;-3.58;100.00
30554;BME280;17335;50.720;7.452;2023-02-28T00:05:31;100483.19;;;-3.58;100.00
30554;BME280;17335;50.720;7.452;2023-02-28T00:07:58;100489.22;;;-3.53;100.00
30554;BME280;17335;50.720;7.452;2023-02-28T00:10:27;100480.63;;;-3.61;100.00
30554;BME280;17335;50.720;7.452;2023-02-28T00:12:58;100481.63;;;-3.68;100.00
30554;BME280;17335;50.720;7.452;2023-02-28T00:15:25;100482.59;;;-3.74;100.00
30554;BME280;17335;50.720;7.452;2023-02-28T00:17:51;100483.69;;;-3.86;100.00
30554;BME280;17335;50.720;7.452;2023-02-28T00:20:19;100481.94;;;-3.87;100.00
30554;BME280;17335;50.720;7.452;2023-02-28T00:22:48;100488.19;;;-3.94;100.00
30554;BME280;17335;50.720;7.452;2023-02-28T00:25:18;100487.34;;;-3.96;100.00
30554;BME280;17335;50.720;7.452;2023-02-28T00:27:52;100478.69;;;-4.01;100.00
30554;BME280;17335;50.720;7.452;2023-02-28T00:30:21;100478.69;;;-4.03;100.00
30554;BME280;17335;50.720;7.452;2023-02-28T00:32:48;100475.34;;;-4.11;100.00
30554;BME280;17335;50.720;7.452;2023-02-28T00:35:15;100491.13;;;-4.12;100.00
30554;BME280;17335;50.720;7.452;2023-02-28T00:37:42;100482.34;;;-4.11;100.00
30554;BME280;17335;50.720;7.452;2023-02-28T00:40:10;100485.00;;;-4.15;100.00
30554;BME280;17335;50.720;7.452;2023-02-28T00:42:38;100491.97;;;-4.12;100.00
30554;BME280;17335;50.720;7.452;2023-02-28T00:45:05;100485.88;;;-4.12;100.00
30554;BME280;17335;50.720;7.452;2023-02-28T00:47:32;100485.88;;;-4.12;100.00
30554;BME280;17335;50.720;7.452;2023-02-28T00:49:59;100484.09;;;-4.10;100.00
30554;BME280;17335;50.720;7.452;2023-02-28T00:52:26;100491.91;;;-4.07;100.00
30554;BME280;17335;50.720;7.452;2023-02-28T00:54:53;100491.84;;;-4.04;100.00
30554;BME280;17335;50.720;7.452;2023-02-28T00:57:20;100488.41;;;-4.09;100.00
30554;BME280;17335;50.720;7.452;2023-02-28T00:59:47;100479.69;;;-4.08;100.00
30554;BME280;17335;50.720;7.452;2023-02-28T01:02:13;100484.94;;;-4.10;100.00
30554;BME280;17335;50.720;7.452;2023-02-28T01:04:40;100486.81;;;-4.18;100.00
30554;BME280;17335;50.720;7.452;2023-02-28T01:07:07;100485.13;;;-4.22;100.00
30554;BME280;17335;50.720;7.452;2023-02-28T01:09:34;100482.56;;;-4.27;100.00
30554;BME280;17335;50.720;7.452;2023-02-28T01:12:00;100490.44;;;-4.27;100.00
30554;BME280;17335;50.720;7.452;2023-02-28T01:14:27;100494.78;;;-4.24;100.00
30554;BME280;17335;50.720;7.452;2023-02-28T01:16:53;100492.28;;;-4.32;100.00
30554;BME280;17335;50.720;7.452;2023-02-28T01:19:20;100489.63;;;-4.30;100.00
30554;BME280;17335;50.720;7.452;2023-02-28T01:21:46;100488.81;;;-4.36;100.00
30554;BME280;17335;50.720;7.452;2023-02-28T01:24:13;100492.28;;;-4.34;100.00
30554;BME280;17335;50.720;7.452;2023-02-28T01:26:40;100486.06;;;-4.26;100.00
30554;BME280;17335;50.720;7.452;2023-02-28T01:29:06;100491.25;;;-4.22;100.00
30554;BME280;17335;50.720;7.452;2023-02-28T01:31:33;100494.81;;;-4.26;100.00
30554;BME280;17335;50.720;7.452;2023-02-28T01:34:00;100486.09;;;-4.28;100.00
30554;BME280;17335;50.720;7.452;2023-02-28T01:36:29;100483.50;;;-4.29;100.00
30554;BME280;17335;50.720;7.452;2023-02-28T01:38:56;100481.84;;;-4.37;100.00
30554;BME280;17335;50.720;7.452;2023-02-28T01:41:27;100481.88;;;-4.38;100.00
30554;BME280;17335;50.720;7.452;2023-02-28T01:43:58;100474.13;;;-4.46;100.00
30554;BME280;17335;50.720;7.452;2023-02-28T01:46:25;100472.53;;;-4.58;100.00
30554;BME280;17335;50.720;7.452;2023-02-28T01:49:14;100469.09;;;-4.61;100.00
30554;BME280;17335;50.720;7.452;2023-02-28T01:51:45;100476.13;;;-4.65;100.00
30554;BME280;17335;50.720;7.452;2023-02-28T01:54:30;100470.94;;;-4.68;100.00
30554;BME280;17335;50.720;7.452;2023-02-28T01:57:19;100472.69;;;-4.68;100.00
30554;BME280;17335;50.720;7.452;2023-02-28T01:59:52;100465.66;;;-4.65;100.00
30554;BME280;17335;50.720;7.452;2023-02-28T02:02:23;100471.75;;;-4.63;100.00
30554;BME280;17335;50.720;7.452;2023-02-28T02:05:04;100465.59;;;-4.59;100.00
30554;BME280;17335;50.720;7.452;2023-02-28T02:07:36;100466.41;;;-4.55;100.00
30554;BME280;17335;50.720;7.452;2023-02-28T02:10:11;100465.50;;;-4.56;100.00
30554;BME280;17335;50.720;7.452;2023-02-28T02:16:02;100464.69;;;-4.58;100.00
30554;BME280;17335;50.720;7.452;2023-02-28T02:35:35;100466.31;;;-4.50;100.00
30554;BME280;17335;50.720;7.452;2023-02-28T02:38:18;100459.31;;;-4.48;100.00
30554;BME280;17335;50.720;7.452;2023-02-28T02:41:13;100449.66;;;-4.45;100.00
30554;BME280;17335;50.720;7.452;2023-02-28T02:46:17;100452.34;;;-4.51;100.00
30554;BME280;17335;50.720;7.452;2023-02-28T02:48:46;100446.28;;;-4.55;100.00
30554;BME280;17335;50.720;7.452;2023-02-28T02:51:16;100446.34;;;-4.58;100.00
30554;BME280;17335;50.720;7.452;2023-02-28T02:53:51;100449.84;;;-4.57;100.00
30554;BME280;17335;50.720;7.452;2023-02-28T02:56:23;100450.66;;;-4.52;100.00
30554;BME280;17335;50.720;7.452;2023-02-28T02:58:55;100444.50;;;-4.51;100.00
30554;BME280;17335;50.720;7.452;2023-02-28T03:01:25;100452.34;;;-4.49;100.00
30554;BME280;17335;50.720;7.452;2023-02-28T03:04:17;100458.41;;;-4.47;100.00
30554;BME280;17335;50.720;7.452;2023-02-28T03:06:45;100457.53;;;-4.46;100.00
30554;BME280;17335;50.720;7.452;2023-02-28T03:09:12;100441.75;;;-4.42;100.00
30554;BME280;17335;50.720;7.452;2023-02-28T03:11:39;100448.69;;;-4.39;100.00
30554;BME280;17335;50.720;7.452;2023-02-28T03:14:10;100449.53;;;-4.37;100.00
30554;BME280;17335;50.720;7.452;2023-02-28T03:17:03;100440.66;;;-4.28;100.00
30554;BME280;17335;50.720;7.452;2023-02-28T03:22:45;100441.56;;;-4.29;100.00
30554;BME280;17335;50.720;7.452;2023-02-28T03:33:16;100447.22;;;-4.03;100.00
30554;BME280;17335;50.720;7.452;2023-02-28T03:35:51;100441.69;;;-3.86;100.00
30554;BME280;17335;50.720;7.452;2023-02-28T03:38:33;100441.13;;;-3.53;100.00
30554;BME280;17335;50.720;7.452;2023-02-28T03:43:41;100435.25;;;-3.21;100.00
30554;BME280;17335;50.720;7.452;2023-02-28T03:46:12;100434.13;;;-3.08;100.00
30554;BME280;17335;50.720;7.452;2023-02-28T03:48:44;100429.78;;;-3.12;100.00
30554;BME280;17335;50.720;7.452;2023-02-28T03:51:15;100433.81;;;-3.37;100.00
30554;BME280;17335;50.720;7.452;2023-02-28T03:53:49;100435.91;;;-3.55;100.00
30554;BME280;17335;50.720;7.452;2023-02-28T03:56:34;100440.63;;;-3.74;100.00
30554;BME280;17335;50.720;7.452;2023-02-28T03:59:28;100440.38;;;-3.60;100.00
30554;BME280;17335;50.720;7.452;2023-02-28T04:01:57;100431.72;;;-3.65;100.00
30554;BME280;17335;50.720;7.452;2023-02-28T04:04:25;100436.09;;;-3.64;100.00
30554;BME280;17335;50.720;7.452;2023-02-28T04:06:52;100438.59;;;-3.60;100.00
30554;BME280;17335;50.720;7.452;2023-02-28T04:09:27;100435.16;;;-3.62;100.00
30554;BME280;17335;50.720;7.452;2023-02-28T04:11:54;100439.59;;;-3.67;100.00
30554;BME280;17335;50.720;7.452;2023-02-28T04:14:24;100440.66;;;-3.75;100.00
30554;BME280;17335;50.720;7.452;2023-02-28T04:16:50;100437.16;;;-3.74;100.00
30554;BME280;17335;50.720;7.452;2023-02-28T04:19:19;100438.19;;;-3.83;100.00
30554;BME280;17335;50.720;7.452;2023-02-28T04:21:50;100445.06;;;-3.78;100.00
30554;BME280;17335;50.720;7.452;2023-02-28T04:24:20;100436.53;;;-3.90;100.00
30554;BME280;17335;50.720;7.452;2023-02-28T04:26:51;100436.53;;;-3.92;100.00
30554;BME280;17335;50.720;7.452;2023-02-28T04:29:28;100440.13;;;-3.96;100.00
30554;BME280;17335;50.720;7.452;2023-02-28T04:31:56;100441.13;;;-4.03;100.00
30554;BME280;17335;50.720;7.452;2023-02-28T04:34:27;100443.78;;;-4.06;100.00
30554;BME280;17335;50.720;7.452;2023-02-28T04:36:55;100447.34;;;-4.07;100.00
30554;BME280;17335;50.720;7.452;2023-02-28T04:39:38;100450.00;;;-4.10;100.00
30554;BME280;17335;50.720;7.452;2023-02-28T04:42:05;100449.94;;;-4.07;100.00
30554;BME280;17335;50.720;7.452;2023-02-28T04:44:31;100443.78;;;-4.06;100.00
30554;BME280;17335;50.720;7.452;2023-02-28T04:46:58;100446.34;;;-4.02;100.00
30554;BME280;17335;50.720;7.452;2023-02-28T04:49:25;100443.91;;;-4.12;100.00
30554;BME280;17335;50.720;7.452;2023-02-28T04:51:51;100443.97;;;-4.16;100.00
30554;BME280;17335;50.720;7.452;2023-02-28T04:54:19;100445.78;;;-4.21;100.00
30554;BME280;17335;50.720;7.452;2023-02-28T04:56:46;100441.53;;;-4.28;100.00
30554;BME280;17335;50.720;7.452;2023-02-28T04:59:15;100444.19;;;-4.31;100.00
30554;BME280;17335;50.720;7.452;2023-02-28T05:01:46;100448.53;;;-4.30;100.00
30554;BME280;17335;50.720;7.452;2023-02-28T05:04:14;100444.09;;;-4.26;100.00
30554;BME280;17335;50.720;7.452;2023-02-28T05:06:40;100445.91;;;-4.28;100.00
30554;BME280;17335;50.720;7.452;2023-02-28T05:09:07;100447.56;;;-4.23;100.00
30554;BME280;17335;50.720;7.452;2023-02-28T05:11:34;100454.69;;;-4.31;100.00
30554;BME280;17335;50.720;7.452;2023-02-28T05:14:10;100452.97;;;-4.35;100.00
30554;BME280;17335;50.720;7.452;2023-02-28T05:16:37;100448.53;;;-4.30;100.00
30554;BME280;17335;50.720;7.452;2023-02-28T05:19:04;100445.22;;;-4.40;100.00
30554;BME280;17335;50.720;7.452;2023-02-28T05:21:31;100446.88;;;-4.34;100.00
30554;BME280;17335;50.720;7.452;2023-02-28T05:24:04;100452.13;;;-4.36;100.00
30554;BME280;17335;50.720;7.452;2023-02-28T05:26:39;100458.97;;;-4.27;100.00
30554;BME280;17335;50.720;7.452;2023-02-28T05:29:07;100457.38;;;-4.36;100.00
30554;BME280;17335;50.720;7.452;2023-02-28T05:31:35;100455.78;;;-4.46;100.00
30554;BME280;17335;50.720;7.452;2023-02-28T05:34:02;100455.94;;;-4.55;100.00
30554;BME280;17335;50.720;7.452;2023-02-28T05:36:31;100464.63;;;-4.55;100.00
30554;BME280;17335;50.720;7.452;2023-02-28T05:38:58;100460.38;;;-4.62;100.00
30554;BME280;17335;50.720;7.452;2023-02-28T05:41:24;100462.22;;;-4.70;100.00
30554;BME280;17335;50.720;7.452;2023-02-28T05:43:52;100463.22;;;-4.77;100.00
30554;BME280;17335;50.720;7.452;2023-02-28T05:46:19;100461.59;;;-4.86;100.00
30554;BME280;17335;50.720;7.452;2023-02-28T05:48:47;100462.53;;;-4.92;100.00
30554;BME280;17335;50.720;7.452;2023-02-28T05:51:15;100462.59;;;-4.98;100.00
30554;BME280;17335;50.720;7.452;2023-02-28T05:53:41;100466.19;;;-5.03;100.00
30554;BME280;17335;50.720;7.452;2023-02-28T05:56:08;100465.34;;;-5.07;100.00
30554;BME280;17335;50.720;7.452;2023-02-28T05:58:35;100461.03;;;-5.14;100.00
30554;BME280;17335;50.720;7.452;2023-02-28T06:01:20;100461.94;;;-5.15;100.00
30554;BME280;17335;50.720;7.452;2023-02-28T06:03:47;100467.19;;;-5.15;100.00
30554;BME280;17335;50.720;7.452;2023-02-28T06:06:14;100466.28;;;-5.16;100.00
30554;BME280;17335;50.720;7.452;2023-02-28T06:08:40;100468.97;;;-5.17;100.00
30554;BME280;17335;50.720;7.452;2023-02-28T06:11:07;100464.56;;;-5.15;100.00
30554;BME280;17335;50.720;7.452;2023-02-28T06:13:33;100461.13;;;-5.20;100.00
30554;BME280;17335;50.720;7.452;2023-02-28T06:16:00;100473.31;;;-5.19;100.00
30554;BME280;17335;50.720;7.452;2023-02-28T06:18:27;100474.28;;;-5.25;100.00
30554;BME280;17335;50.720;7.452;2023-02-28T06:20:54;100471.66;;;-5.27;100.00
30554;BME280;17335;50.720;7.452;2023-02-28T06:23:21;100473.44;;;-5.29;100.00
30554;BME280;17335;50.720;7.452;2023-02-28T06:25:48;100472.50;;;-5.23;100.00
30554;BME280;17335;50.720;7.452;2023-02-28T06:28:15;100489.00;;;-5.16;100.00
30554;BME280;17335;50.720;7.452;2023-02-28T06:30:42;100488.16;;;-5.17;100.00
30554;BME280;17335;50.720;7.452;2023-02-28T06:33:11;100482.91;;;-5.17;100.00
30554;BME280;17335;50.720;7.452;2023-02-28T06:35:38;100478.53;;;-5.16;100.00
30554;BME280;17335;50.720;7.452;2023-02-28T06:38:05;100484.63;;;-5.16;100.00
30554;BME280;17335;50.720;7.452;2023-02-28T06:40:31;100479.34;;;-5.13;100.00
30554;BME280;17335;50.720;7.452;2023-02-28T06:43:01;100493.34;;;-5.12;100.00
30554;BME280;17335;50.720;7.452;2023-02-28T06:45:28;100492.47;;;-5.14;100.00
30554;BME280;17335;50.720;7.452;2023-02-28T06:47:55;100493.25;;;-5.07;100.00
30554;BME280;17335;50.720;7.452;2023-02-28T06:50:21;100494.16;;;-5.07;100.00
30554;BME280;17335;50.720;7.452;2023-02-28T06:52:48;100501.06;;;-5.03;100.00
30554;BME280;17335;50.720;7.452;2023-02-28T06:55:14;100506.38;;;-5.09;100.00
30554;BME280;17335;50.720;7.452;2023-02-28T06:57:41;100504.66;;;-5.12;100.00
30554;BME280;17335;50.720;7.452;2023-02-28T07:00:09;100498.47;;;-5.06;100.00
30554;BME280;17335;50.720;7.452;2023-02-28T07:02:36;100517.66;;;-5.05;100.00
30554;BME280;17335;50.720;7.452;2023-02-28T07:05:05;100516.66;;;-4.94;100.00
30554;BME280;17335;50.720;7.452;2023-02-28T07:07:32;100518.25;;;-4.80;100.00
30554;BME280;17335;50.720;7.452;2023-02-28T07:09:58;100505.84;;;-4.66;100.00
30554;BME280;17335;50.720;7.452;2023-02-28T07:12:25;100515.38;;;-4.59;100.00
30554;BME280;17335;50.720;7.452;2023-02-28T07:14:52;100516.78;;;-4.35;100.00
30554;BME280;17335;50.720;7.452;2023-02-28T07:17:18;100516.44;;;-4.13;100.00
30554;BME280;17335;50.720;7.452;2023-02-28T07:19:45;100507.66;;;-4.09;100.00
30554;BME280;17335;50.720;7.452;2023-02-28T07:22:11;100515.97;;;-3.82;100.00
30554;BME280;17335;50.720;7.452;2023-02-28T07:24:41;100504.50;;;-3.77;100.00
30554;BME280;17335;50.720;7.452;2023-02-28T07:27:07;100512.13;;;-3.61;100.00
30554;BME280;17335;50.720;7.452;2023-02-28T07:29:34;100516.00;;;-3.34;100.00
30554;BME280;17335;50.720;7.452;2023-02-28T07:32:01;100508.91;;;-3.29;100.00
30554;BME280;17335;50.720;7.452;2023-02-28T07:34:27;100508.56;;;-3.10;100.00
30554;BME280;17335;50.720;7.452;2023-02-28T07:36:54;100503.81;;;-2.91;100.00
30554;BME280;17335;50.720;7.452;2023-02-28T07:39:21;100503.28;;;-2.67;100.00
30554;BME280;17335;50.720;7.452;2023-02-28T07:41:48;100510.34;;;-2.69;100.00
30554;BME280;17335;50.720;7.452;2023-02-28T07:44:15;100501.63;;;-2.69;100.00
30554;BME280;17335;50.720;7.452;2023-02-28T07:46:42;100501.44;;;-2.61;100.00
30554;BME280;17335;50.720;7.452;2023-02-28T07:49:09;100508.22;;;-2.51;100.00
30554;BME280;17335;50.720;7.452;2023-02-28T07:51:35;100512.31;;;-2.38;100.00
30554;BME280;17335;50.720;7.452;2023-02-28T07:54:02;100515.59;;;-2.27;100.00
30554;BME280;17335;50.720;7.452;2023-02-28T07:56:29;100517.97;;;-2.16;100.00
30554;BME280;17335;50.720;7.452;2023-02-28T07:58:57;100510.69;;;-2.04;100.00
30554;BME280;17335;50.720;7.452;2023-02-28T08:01:23;100506.75;;;-1.86;100.00
30554;BME280;17335;50.720;7.452;2023-02-28T08:03:50;100506.41;;;-1.73;100.00
30554;BME280;17335;50.720;7.452;2023-02-28T08:06:21;100504.22;;;-1.57;100.00
30554;BME280;17335;50.720;7.452;2023-02-28T08:08:48;100505.94;;;-1.54;100.00
30554;BME280;17335;50.720;7.452;2023-02-28T08:11:16;100502.25;;;-1.47;100.00
30554;BME280;17335;50.720;7.452;2023-02-28T08:13:44;100510.00;;;-1.41;100.00
30554;BME280;17335;50.720;7.452;2023-02-28T08:16:12;100506.22;;;-1.30;100.00
30554;BME280;17335;50.720;7.452;2023-02-28T08:18:50;100499.81;;;-1.22;100.00
30554;BME280;17335;50.720;7.452;2023-02-28T08:21:17;100498.75;;;-1.15;100.00
30554;BME280;17335;50.720;7.452;2023-02-28T08:23:47;100490.56;;;-1.05;100.00
30554;BME280;17335;50.720;7.452;2023-02-28T08:26:16;100499.94;;;-0.95;100.00
30554;BME280;17335;50.720;7.452;2023-02-28T08:28:42;100490.75;;;-0.80;100.00
30554;BME280;17335;50.720;7.452;2023-02-28T08:31:12;100488.16;;;-0.82;100.00
30554;BME280;17335;50.720;7.452;2023-02-28T08:33:40;100479.97;;;-0.72;100.00
30554;BME280;17335;50.720;7.452;2023-02-28T08:36:08;100479.91;;;-0.71;100.00
30554;BME280;17335;50.720;7.452;2023-02-28T08:38:36;100488.44;;;-0.61;100.00
30554;BME280;17335;50.720;7.452;2023-02-28T08:41:05;100479.47;;;-0.55;100.00
30554;BME280;17335;50.720;7.452;2023-02-28T08:43:34;100474.91;;;-0.50;100.00
30554;BME280;17335;50.720;7.452;2023-02-28T08:46:01;100479.97;;;-0.43;100.00
30554;BME280;17335;50.720;7.452;2023-02-28T08:48:29;100480.81;;;-0.42;100.00
30554;BME280;17335;50.720;7.452;2023-02-28T08:51:00;100474.50;;;-0.36;100.00
30554;BME280;17335;50.720;7.452;2023-02-28T08:53:33;100478.59;;;-0.28;100.00
30554;BME280;17335;50.720;7.452;2023-02-28T08:56:11;100485.66;;;-0.28;100.00
30554;BME280;17335;50.720;7.452;2023-02-28T08:58:38;100482.63;;;-0.16;100.00
30554;BME280;17335;50.720;7.452;2023-02-28T09:01:17;100487.41;;;-0.27;100.00
30554;BME280;17335;50.720;7.452;2023-02-28T09:03:45;100490.19;;;-0.32;100.00
30554;BME280;17335;50.720;7.452;2023-02-28T09:06:13;100480.56;;;-0.34;100.00
30554;BME280;17335;50.720;7.452;2023-02-28T09:08:41;100481.41;;;-0.32;100.00
30554;BME280;17335;50.720;7.452;2023-02-28T09:11:08;100483.75;;;-0.23;100.00
30554;BME280;17335;50.720;7.452;2023-02-28T09:13:35;100480.09;;;-0.19;100.00
30554;BME280;17335;50.720;7.452;2023-02-28T09:16:04;100479.78;;;-0.08;100.00
30554;BME280;17335;50.720;7.452;2023-02-28T09:18:31;100477.75;;;0.00;100.00
30554;BME280;17335;50.720;7.452;2023-02-28T09:20:58;100480.03;;;0.11;100.00
30554;BME280;17335;50.720;7.452;2023-02-28T09:23:25;100480.66;;;0.19;100.00
30554;BME280;17335;50.720;7.452;2023-02-28T09:25:53;100474.28;;;0.25;98.30
30554;BME280;17335;50.720;7.452;2023-02-28T09:28:21;100474.06;;;0.31;100.00
30554;BME280;17335;50.720;7.452;2023-02-28T09:30:51;100481.84;;;0.35;94.35
30554;BME280;17335;50.720;7.452;2023-02-28T09:33:19;100478.72;;;0.49;94.55
30554;BME280;17335;50.720;7.452;2023-02-28T09:35:48;100478.63;;;0.52;94.06
30554;BME280;17335;50.720;7.452;2023-02-28T09:38:16;100481.00;;;0.60;90.10
30554;BME280;17335;50.720;7.452;2023-02-28T09:40:57;100472.06;;;0.64;90.50
30554;BME280;17335;50.720;7.452;2023-02-28T09:43:26;100464.69;;;0.74;88.81
30554;BME280;17335;50.720;7.452;2023-02-28T09:46:00;100465.13;;;0.85;92.12
30554;BME280;17335;50.720;7.452;2023-02-28T09:48:33;100472.56;;;0.99;88.24
30554;BME280;17335;50.720;7.452;2023-02-28T09:51:33;100475.91;;;1.04;83.91
30554;BME280;17335;50.720;7.452;2023-02-28T09:54:02;100461.78;;;1.05;81.27
30554;BME280;17335;50.720;7.452;2023-02-28T09:56:39;100466.53;;;1.19;81.19
30554;BME280;17335;50.720;7.452;2023-02-28T09:59:25;100467.63;;;1.37;78.29
30554;BME280;17335;50.720;7.452;2023-02-28T10:10:14;100468.91;;;1.73;69.82
30554;BME280;17335;50.720;7.452;2023-02-28T10:12:44;100471.38;;;1.77;67.63
30554;BME280;17335;50.720;7.452;2023-02-28T10:15:14;100459.16;;;1.73;66.09
30554;BME280;17335;50.720;7.452;2023-02-28T10:17:44;100463.78;;;1.68;63.63
30554;BME280;17335;50.720;7.452;2023-02-28T10:20:27;100462.38;;;1.81;64.88
30554;BME280;17335;50.720;7.452;2023-02-28T10:23:02;100455.13;;;1.86;64.12
30554;BME280;17335;50.720;7.452;2023-02-28T10:25:36;100454.88;;;1.93;63.66
30554;BME280;17335;50.720;7.452;2023-02-28T10:28:11;100456.34;;;2.00;63.24
30554;BME280;17335;50.720;7.452;2023-02-28T10:30:43;100451.03;;;2.00;61.72
30554;BME280;17335;50.720;7.452;2023-02-28T10:33:35;100450.94;;;2.03;60.11
30554;BME280;17335;50.720;7.452;2023-02-28T10:36:03;100451.38;;;2.13;61.21
30554;BME280;17335;50.720;7.452;2023-02-28T10:38:35;100457.34;;;2.18;62.42
30554;BME280;17335;50.720;7.452;2023-02-28T10:41:06;100443.16;;;1.98;60.63
30554;BME280;17335;50.720;7.452;2023-02-28T10:43:37;100449.44;;;1.96;60.64
30554;BME280;17335;50.720;7.452;2023-02-28T10:46:14;100441.28;;;2.22;61.00
30554;BME280;17335;50.720;7.452;2023-02-28T10:49:02;100441.91;;;2.07;58.55
30554;BME280;17335;50.720;7.452;2023-02-28T10:51:40;100439.81;;;2.15;59.00
30554;BME280;17335;50.720;7.452;2023-02-28T10:54:35;100435.38;;;2.16;59.35
30554;BME280;17335;50.720;7.452;2023-02-28T10:57:19;100441.22;;;2.24;59.56
30554;BME280;17335;50.720;7.452;2023-02-28T10:59:50;100444.59;;;2.28;58.50
30554;BME280;17335;50.720;7.452;2023-02-28T11:02:35;100454.50;;;2.02;57.47
30554;BME280;17335;50.720;7.452;2023-02-28T11:07:54;100429.25;;;2.56;59.86
30554;BME280;17335;50.720;7.452;2023-02-28T11:10:25;100417.44;;;2.63;58.12
30554;BME280;17335;50.720;7.452;2023-02-28T11:12:56;100423.34;;;2.50;58.03
30554;BME280;17335;50.720;7.452;2023-02-28T11:15:28;100431.59;;;2.42;58.48
30554;BME280;17335;50.720;7.452;2023-02-28T11:20:28;100433.94;;;2.70;57.59
30554;BME280;17335;50.720;7.452;2023-02-28T11:22:56;100429.53;;;2.69;59.39
30554;BME280;17335;50.720;7.452;2023-02-28T11:27:56;100423.94;;;2.56;58.19
30554;BME280;17335;50.720;7.452;2023-02-28T11:32:57;100434.00;;;2.69;57.97
30554;BME280;17335;50.720;7.452;2023-02-28T11:35:36;100417.63;;;2.59;57.26
30554;BME280;17335;50.720;7.452;2023-02-28T11:38:09;100416.34;;;2.68;57.53
30554;BME280;17335;50.720;7.452;2023-02-28T11:40:46;100425.69;;;2.56;59.26
30554;BME280;17335;50.720;7.452;2023-02-28T11:51:51;100415.69;;;3.02;56.62
30554;BME280;17335;50.720;7.452;2023-02-28T11:54:44;100423.59;;;3.04;57.12
30554;BME280;17335;50.720;7.452;2023-02-28T12:02:37;100421.00;;;3.02;56.81
30554;BME280;17335;50.720;7.452;2023-02-28T12:05:44;100417.56;;;3.00;55.35
30554;BME280;17335;50.720;7.452;2023-02-28T12:08:45;100415.63;;;3.23;56.95
30554;BME280;17335;50.720;7.452;2023-02-28T12:19:25;100410.69;;;3.15;56.48
30554;BME280;17335;50.720;7.452;2023-02-28T12:27:17;100407.22;;;3.13;56.84
30554;BME280;17335;50.720;7.452;2023-02-28T12:29:55;100404.28;;;3.38;56.47
30554;BME280;17335;50.720;7.452;2023-02-28T12:32:32;100396.41;;;3.36;55.24
30554;BME280;17335;50.720;7.452;2023-02-28T12:37:43;100397.81;;;3.44;55.00
30554;BME280;17335;50.720;7.452;2023-02-28T12:40:16;100396.69;;;3.49;54.28
30554;BME280;17335;50.720;7.452;2023-02-28T12:42:50;100387.09;;;3.64;54.72
30554;BME280;17335;50.720;7.452;2023-02-28T12:45:23;100389.31;;;3.73;55.48
30554;BME280;17335;50.720;7.452;2023-02-28T12:48:00;100389.59;;;3.31;54.84
30554;BME280;17335;50.720;7.452;2023-02-28T12:50:27;100388.22;;;3.41;55.44
30554;BME280;17335;50.720;7.452;2023-02-28T12:53:00;100389.44;;;3.53;55.11
30554;BME280;17335;50.720;7.452;2023-02-28T12:55:43;100379.41;;;3.77;55.30
30554;BME280;17335;50.720;7.452;2023-02-28T12:58:33;100370.34;;;3.81;55.59
30554;BME280;17335;50.720;7.452;2023-02-28T13:04:25;100382.59;;;3.66;56.21
30554;BME280;17335;50.720;7.452;2023-02-28T13:09:26;100378.22;;;3.65;57.30
30554;BME280;17335;50.720;7.452;2023-02-28T13:11:56;100375.41;;;3.68;56.73
30554;BME280;17335;50.720;7.452;2023-02-28T13:14:28;100369.06;;;3.71;56.21
30554;BME280;17335;50.720;7.452;2023-02-28T13:19:39;100362.88;;;3.53;57.06
30554;BME280;17335;50.720;7.452;2023-02-28T13:22:21;100358.50;;;3.52;55.45
30554;BME280;17335;50.720;7.452;2023-02-28T13:25:02;100360.31;;;3.69;58.62
30554;BME280;17335;50.720;7.452;2023-02-28T13:27:39;100359.72;;;3.81;58.23
30554;BME280;17335;50.720;7.452;2023-02-28T13:35:47;100366.97;;;3.78;55.27
30554;BME280;17335;50.720;7.452;2023-02-28T13:38:32;100362.84;;;3.72;54.90
30554;BME280;17335;50.720;7.452;2023-02-28T13:51:51;100352.38;;;3.69;54.67
30554;BME280;17335;50.720;7.452;2023-02-28T13:54:26;100355.88;;;3.69;55.00
30554;BME280;17335;50.720;7.452;2023-02-28T13:57:20;100357.59;;;3.70;56.03
30554;BME280;17335;50.720;7.452;2023-02-28T14:03:01;100348.78;;;3.70;55.08
30554;BME280;17335;50.720;7.452;2023-02-28T14:05:33;100352.78;;;3.79;55.41
30554;BME280;17335;50.720;7.452;2023-02-28T14:08:14;100342.38;;;3.74;55.34
30554;BME280;17335;50.720;7.452;2023-02-28T14:10:48;100336.59;;;3.83;55.61
30554;BME280;17335;50.720;7.452;2023-02-28T14:15:54;100333.16;;;3.81;54.88
30554;BME280;17335;50.720;7.452;2023-02-28T14:18:28;100331.59;;;3.94;56.37
30554;BME280;17335;50.720;7.452;2023-02-28T14:23:36;100322.59;;;3.97;57.06
30554;BME280;17335;50.720;7.452;2023-02-28T14:31:44;100319.44;;;3.90;56.23
30554;BME280;17335;50.720;7.452;2023-02-28T14:34:52;100328.09;;;3.77;55.32
30554;BME280;17335;50.720;7.452;2023-02-28T14:37:27;100322.31;;;3.86;56.63
30554;BME280;17335;50.720;7.452;2023-02-28T14:39:54;100315.72;;;4.10;56.72
30554;BME280;17335;50.720;7.452;2023-02-28T14:42:33;100325.88;;;4.20;55.91
30554;BME280;17335;50.720;7.452;2023-02-28T14:45:01;100319.25;;;4.11;56.15
30554;BME280;17335;50.720;7.452;2023-02-28T14:47:33;100318.31;;;4.12;56.02
30554;BME280;17335;50.720;7.452;2023-02-28T14:50:03;100312.91;;;4.13;55.62
30554;BME280;17335;50.720;7.452;2023-02-28T14:52:31;100316.75;;;4.08;55.82
30554;BME280;17335;50.720;7.452;2023-02-28T14:55:01;100325.34;;;4.13;56.29
30554;BME280;17335;50.720;7.452;2023-02-28T14:57:34;100317.59;;;4.08;55.89
30554;BME280;17335;50.720;7.452;2023-02-28T15:02:39;100314.22;;;4.22;56.16
30554;BME280;17335;50.720;7.452;2023-02-28T15:07:38;100317.84;;;4.21;56.51
30554;BME280;17335;50.720;7.452;2023-02-28T15:12:36;100305.63;;;4.17;56.56
30554;BME280;17335;50.720;7.452;2023-02-28T15:15:03;100304.78;;;4.17;56.32
30554;BME280;17335;50.720;7.452;2023-02-28T15:17:30;100307.13;;;4.05;56.06